Time;durP1;ratioP1;P1;durP2;ratioP2;P2;SDS_P1;SDS_P2;PMS_P1;PMS_P2;Temp;Humidity;BMP_temperature;BMP_pressure;BME280_temperature;BME280_humidity;BME280_pressure;Samples;Min_cycle;Max_cycle;Signal;HPM_P1;HPM_P2
2022/02/13 00:00:22;;;;;;;22.37;11.03;;;;;;;-1.62;75.52;102253.59;1722938;83;21015;-84
2022/02/13 00:02:50;;;;;;;33.98;12.25;;;;;;;-1.61;75.54;102249.88;1722337;83;21065;-84
2022/02/13 00:05:17;;;;;;;23.75;11.20;;;;;;;-1.63;75.51;102246.63;1722800;82;21057;-83
2022/02/13 00:07:44;;;;;;;23.92;10.63;;;;;;;-1.64;75.53;102240.92;1722628;83;21749;-84
2022/02/13 00:10:13;;;;;;;28.38;11.78;;;;;;;-1.67;75.55;102229.93;1722607;82;21042;-83
2022/02/13 00:12:39;;;;;;;30.20;12.30;;;;;;;-1.67;75.59;102228.99;1722694;83;20959;-83
2022/02/13 00:15:07;;;;;;;26.48;12.00;;;;;;;-1.66;75.67;102228.25;1722692;82;21081;-84
2022/02/13 00:17:34;;;;;;;28.17;11.60;;;;;;;-1.67;75.67;102228.99;1722700;82;21018;-84
2022/02/13 00:20:02;;;;;;;27.50;12.82;;;;;;;-1.68;75.64;102215.18;1722757;83;21897;-83
2022/02/13 00:22:30;;;;;;;27.65;12.63;;;;;;;-1.69;75.64;102217.61;1722441;82;20979;-83
2022/02/13 00:24:57;;;;;;;31.02;13.22;;;;;;;-1.71;75.64;102208.42;1722552;82;21035;-83
2022/02/13 00:27:24;;;;;;;31.60;12.70;;;;;;;-1.73;75.63;102206.46;1722659;82;21005;-84
2022/02/13 00:29:51;;;;;;;27.27;12.33;;;;;;;-1.76;75.66;102206.70;1722733;83;20974;-84
2022/02/13 00:32:18;;;;;;;28.07;12.88;;;;;;;-1.75;75.75;102199.84;1722664;83;21741;-84
2022/02/13 00:34:45;;;;;;;30.02;12.58;;;;;;;-1.78;75.71;102199.19;1722322;83;20998;-83
2022/02/13 00:37:12;;;;;;;28.25;12.47;;;;;;;-1.77;75.77;102202.28;1722506;83;21043;-84
2022/02/13 00:39:38;;;;;;;26.68;12.90;;;;;;;-1.78;75.81;102195.31;1722416;82;21043;-83
2022/02/13 00:42:05;;;;;;;26.75;11.97;;;;;;;-1.79;75.84;102193.87;1722101;82;21073;-83
2022/02/13 00:44:32;;;;;;;28.57;13.05;;;;;;;-1.79;75.85;102196.05;1722376;83;21749;-83
2022/02/13 00:46:59;;;;;;;29.20;12.65;;;;;;;-1.79;75.95;102186.13;1722428;82;20948;-83
2022/02/13 00:49:25;;;;;;;29.52;12.50;;;;;;;-1.78;75.97;102190.15;1722419;82;21018;-83
2022/02/13 00:51:53;;;;;;;30.23;12.95;;;;;;;-1.78;75.98;102187.95;1704938;82;21051;-84
2022/02/13 00:54:21;;;;;;;28.40;12.70;;;;;;;-1.78;76.00;102195.70;1769056;80;21002;-83
2022/02/13 00:56:47;;;;;;;27.02;12.75;;;;;;;-1.79;76.03;102182.25;1769503;81;22615;-82
2022/02/13 00:59:14;;;;;;;28.23;12.93;;;;;;;-1.80;76.09;102181.73;1769517;81;21384;-83
2022/02/13 01:01:40;;;;;;;28.50;12.82;;;;;;;-1.79;76.15;102178.38;1769471;80;20974;-83
2022/02/13 01:04:07;;;;;;;28.47;12.43;;;;;;;-1.80;76.18;102176.58;1769259;81;20975;-83
2022/02/13 01:06:34;;;;;;;29.65;12.82;;;;;;;-1.80;76.20;102166.25;1769564;81;21022;-82
2022/02/13 01:09:03;;;;;;;26.73;13.78;;;;;;;-1.79;76.22;102163.80;1769436;81;21881;-84
2022/02/13 01:11:29;;;;;;;29.98;13.50;;;;;;;-1.79;76.27;102163.80;1769209;80;20975;-84
2022/02/13 01:13:55;;;;;;;33.88;13.80;;;;;;;-1.79;76.27;102157.34;1769217;81;21014;-83
2022/02/13 01:16:22;;;;;;;29.82;12.80;;;;;;;-1.78;76.32;102151.43;1769235;80;20999;-83
2022/02/13 01:18:49;;;;;;;29.45;12.55;;;;;;;-1.77;76.32;102151.94;1769432;81;21508;-83
2022/02/13 01:21:15;;;;;;;28.05;12.73;;;;;;;-1.76;76.36;102149.91;1769255;81;21733;-84
2022/02/13 01:23:44;;;;;;;30.70;12.82;;;;;;;-1.75;76.36;102137.90;1769320;80;21706;-84
2022/02/13 01:26:11;;;;;;;33.00;12.90;;;;;;;-1.73;76.40;102138.95;1769113;81;21520;-84
2022/02/13 01:28:38;;;;;;;25.80;12.35;;;;;;;-1.74;76.34;102138.44;1769566;80;21161;-83
2022/02/13 01:31:06;;;;;;;36.55;13.85;;;;;;;-1.76;76.38;102132.23;1769428;80;21006;-83
2022/02/13 01:33:33;;;;;;;30.88;14.03;;;;;;;-1.76;76.45;102131.84;1769346;80;21676;-83
2022/02/13 01:36:00;;;;;;;30.20;13.45;;;;;;;-1.76;76.50;102125.38;1768894;80;20963;-83
2022/02/13 01:38:27;;;;;;;31.90;13.83;;;;;;;-1.76;76.49;102127.97;1768479;80;21088;-83
2022/02/13 01:40:54;;;;;;;31.15;14.05;;;;;;;-1.75;76.52;102123.70;1768760;81;21171;-82
2022/02/13 01:43:20;;;;;;;28.40;13.98;;;;;;;-1.77;76.55;102109.74;1769408;80;20991;-83
2022/02/13 01:45:47;;;;;;;33.60;13.38;;;;;;;-1.77;76.63;102105.87;1769152;80;21745;-83
2022/02/13 01:48:13;;;;;;;30.05;14.30;;;;;;;-1.77;76.66;102106.77;1769321;81;20988;-83
2022/02/13 01:50:41;;;;;;;34.45;15.00;;;;;;;-1.74;76.73;102097.53;1767513;80;20956;-82
2022/02/13 01:53:09;;;;;;;28.70;14.58;;;;;;;-1.74;76.74;102094.95;1764046;80;20952;-84
2022/02/13 01:55:36;;;;;;;29.12;14.00;;;;;;;-1.72;76.80;102096.00;1764146;81;21006;-84
2022/02/13 01:58:03;;;;;;;34.35;13.90;;;;;;;-1.74;76.80;102095.84;1764301;81;21919;-85
2022/02/13 02:00:32;;;;;;;34.53;14.93;;;;;;;-1.72;76.84;102092.13;1764326;80;20979;-84
2022/02/13 02:02:58;;;;;;;27.70;14.93;;;;;;;-1.73;76.84;102087.33;1764182;81;20951;-84
2022/02/13 02:05:25;;;;;;;29.82;15.18;;;;;;;-1.74;76.83;102089.40;1764241;81;21022;-84
2022/02/13 02:07:52;;;;;;;31.82;14.93;;;;;;;-1.74;76.91;102070.42;1764354;81;21067;-84
2022/02/13 02:10:22;;;;;;;33.28;15.83;;;;;;;-1.75;76.87;102074.66;1764113;81;21891;-84
2022/02/13 02:12:48;;;;;;;31.75;14.47;;;;;;;-1.76;76.89;102074.15;1764125;81;20951;-84
2022/02/13 02:15:17;;;;;;;35.58;16.05;;;;;;;-1.77;76.96;102071.02;1764161;80;21050;-83
2022/02/13 02:17:44;;;;;;;32.42;15.63;;;;;;;-1.78;77.03;102062.38;1763612;81;20963;-83
2022/02/13 02:20:12;;;;;;;28.77;14.40;;;;;;;-1.74;77.08;102060.10;1764191;81;20979;-83
2022/02/13 02:22:42;;;;;;;31.60;15.40;;;;;;;-1.73;77.10;102055.06;1764189;81;22515;-83
2022/02/13 02:25:09;;;;;;;31.48;15.35;;;;;;;-1.72;77.13;102053.41;1744351;80;20991;-83
2022/02/13 02:27:36;;;;;;;31.30;15.13;;;;;;;-1.73;77.21;102048.61;1763935;80;20975;-82
2022/02/13 02:30:03;;;;;;;33.60;14.87;;;;;;;-1.68;77.23;102042.61;1764291;80;21467;-82
2022/02/13 02:32:30;;;;;;;34.88;16.00;;;;;;;-1.68;77.22;102046.48;1763661;81;21158;-84
2022/02/13 02:34:56;;;;;;;30.60;14.80;;;;;;;-1.66;77.23;102035.91;1763938;80;21725;-84
2022/02/13 02:37:24;;;;;;;32.05;15.50;;;;;;;-1.64;77.28;102034.38;1764124;81;20960;-84
2022/02/13 02:39:51;;;;;;;35.10;15.58;;;;;;;-1.66;77.25;102027.77;1764284;80;20963;-84
2022/02/13 02:42:17;;;;;;;28.38;15.75;;;;;;;-1.64;77.26;102024.95;1764446;81;20975;-84
2022/02/13 02:44:44;;;;;;;36.98;14.95;;;;;;;-1.62;77.28;102027.69;1764536;81;21485;-84
2022/02/13 02:47:11;;;;;;;32.00;15.45;;;;;;;-1.61;77.29;102029.52;1764466;81;21750;-84
2022/02/13 02:49:37;;;;;;;30.10;15.53;;;;;;;-1.60;77.33;102025.77;1764321;80;21431;-83
2022/02/13 02:52:05;;;;;;;34.50;15.75;;;;;;;-1.58;77.34;102012.64;1763928;80;21502;-84
2022/02/13 02:54:32;;;;;;;32.67;15.68;;;;;;;-1.57;77.30;102012.25;1763712;81;20995;-83
2022/02/13 02:56:59;;;;;;;32.85;16.52;;;;;;;-1.58;77.34;102019.09;1764165;81;20991;-84
2022/02/13 02:59:26;;;;;;;32.17;16.48;;;;;;;-1.55;77.34;102012.41;1764263;81;21744;-84
2022/02/13 03:01:52;;;;;;;30.88;16.07;;;;;;;-1.55;77.35;102007.23;1763916;80;20948;-84
2022/02/13 03:04:19;;;;;;;36.95;15.98;;;;;;;-1.52;77.40;102013.60;1764541;81;20995;-85
2022/02/13 03:06:46;;;;;;;30.35;16.35;;;;;;;-1.49;77.38;102006.52;1764162;81;21434;-84
2022/02/13 03:09:12;;;;;;;35.58;16.70;;;;;;;-1.48;77.34;102008.31;1764458;81;20999;-85
2022/02/13 03:11:39;;;;;;;31.40;15.58;;;;;;;-1.50;77.26;102005.97;1764535;81;21666;-84
2022/02/13 03:14:06;;;;;;;34.55;16.32;;;;;;;-1.50;77.29;102001.73;1764029;80;20983;-84
2022/02/13 03:16:32;;;;;;;30.80;15.30;;;;;;;-1.51;77.32;101993.45;1764408;81;20989;-85
2022/02/13 03:18:59;;;;;;;37.42;16.32;;;;;;;-1.49;77.30;101993.20;1764467;81;21216;-84
2022/02/13 03:21:27;;;;;;;32.20;15.72;;;;;;;-1.51;77.24;102000.30;1764728;81;21003;-84
2022/02/13 03:23:54;;;;;;;31.17;15.48;;;;;;;-1.52;77.23;101992.02;1764621;81;23024;-84
2022/02/13 03:26:23;;;;;;;35.55;15.15;;;;;;;-1.57;77.19;101983.46;1764413;81;20952;-84
2022/02/13 03:28:49;;;;;;;32.20;15.80;;;;;;;-1.58;77.17;101986.83;1763754;81;21398;-84
2022/02/13 03:31:15;;;;;;;31.37;15.65;;;;;;;-1.61;77.17;101984.34;1764419;81;21069;-84
2022/02/13 03:33:42;;;;;;;29.15;16.05;;;;;;;-1.63;77.22;101980.31;1764588;81;21011;-83
2022/02/13 03:36:09;;;;;;;31.70;16.87;;;;;;;-1.65;77.17;101986.08;1764099;81;21901;-84
2022/02/13 03:38:35;;;;;;;34.50;17.67;;;;;;;-1.67;77.20;101977.28;1764330;81;21936;-83
2022/02/13 03:41:02;;;;;;;34.03;16.42;;;;;;;-1.69;77.20;101977.52;1764321;81;21075;-84
2022/02/13 03:43:29;;;;;;;38.02;17.20;;;;;;;-1.71;77.22;101989.39;1764378;81;21027;-83
2022/02/13 03:45:55;;;;;;;34.67;17.55;;;;;;;-1.73;77.26;101981.88;1764451;81;20972;-84
2022/02/13 03:48:22;;;;;;;32.48;16.75;;;;;;;-1.74;77.29;101977.50;1764390;80;21793;-84
2022/02/13 03:50:49;;;;;;;37.00;17.07;;;;;;;-1.76;77.27;101973.48;1764260;80;20972;-84
2022/02/13 03:53:16;;;;;;;35.13;16.82;;;;;;;-1.77;77.28;101964.80;1761628;81;21018;-84
2022/02/13 03:55:42;;;;;;;34.83;16.97;;;;;;;-1.78;77.30;101964.69;1761571;81;21166;-85
2022/02/13 03:58:09;;;;;;;39.53;18.12;;;;;;;-1.78;77.34;101955.66;1761657;81;20983;-84
2022/02/13 04:00:35;;;;;;;32.83;16.67;;;;;;;-1.78;77.39;101956.95;1761827;81;21741;-85
2022/02/13 04:03:02;;;;;;;34.10;16.73;;;;;;;-1.78;77.33;101947.52;1761741;81;21504;-84
2022/02/13 04:05:29;;;;;;;32.38;16.45;;;;;;;-1.82;77.30;101942.84;1761879;80;21447;-84
2022/02/13 04:07:55;;;;;;;33.23;17.12;;;;;;;-1.83;77.29;101936.23;1761736;81;21123;-84
2022/02/13 04:10:22;;;;;;;37.15;17.50;;;;;;;-1.86;77.35;101934.65;1761708;80;21058;-84
2022/02/13 04:12:49;;;;;;;42.50;17.17;;;;;;;-1.86;77.41;101934.65;1761772;81;21752;-84
2022/02/13 04:15:15;;;;;;;38.67;18.52;;;;;;;-1.85;77.45;101933.90;1761701;81;20944;-84
2022/02/13 04:17:42;;;;;;;34.27;17.77;;;;;;;-1.86;77.46;101923.97;1761456;81;21469;-84
2022/02/13 04:20:10;;;;;;;35.35;17.95;;;;;;;-1.88;77.49;101912.56;1761733;81;20976;-85
2022/02/13 04:22:37;;;;;;;37.45;18.60;;;;;;;-1.86;77.56;101917.52;1761691;81;21405;-84
2022/02/13 04:25:04;;;;;;;37.58;18.37;;;;;;;-1.86;77.54;101917.52;1761849;81;21920;-85
2022/02/13 04:27:31;;;;;;;39.58;18.98;;;;;;;-1.85;77.63;101910.28;1761723;81;21366;-83
2022/02/13 04:29:57;;;;;;;39.23;18.50;;;;;;;-1.86;77.61;101900.74;1761701;81;20940;-84
2022/02/13 04:32:24;;;;;;;36.38;17.15;;;;;;;-1.84;77.65;101899.56;1761744;81;21038;-84
2022/02/13 04:34:51;;;;;;;40.45;19.60;;;;;;;-1.86;77.61;101891.71;1761941;81;20968;-84
2022/02/13 04:37:17;;;;;;;38.05;18.77;;;;;;;-1.85;77.69;101888.34;1761308;81;21900;-84
2022/02/13 04:39:44;;;;;;;39.20;19.48;;;;;;;-1.84;77.70;101887.59;1761665;81;20975;-83
2022/02/13 04:42:12;;;;;;;33.85;18.15;;;;;;;-1.82;77.72;101887.35;1761680;81;21036;-83
2022/02/13 04:44:39;;;;;;;39.35;19.12;;;;;;;-1.83;77.66;101882.05;1761652;81;21006;-83
2022/02/13 04:47:05;;;;;;;34.85;18.50;;;;;;;-1.84;77.68;101887.59;1761599;81;20948;-83
2022/02/13 04:49:32;;;;;;;43.98;19.90;;;;;;;-1.82;77.67;101884.77;1761680;81;21844;-83
2022/02/13 04:51:59;;;;;;;40.63;19.48;;;;;;;-1.83;77.69;101884.23;1761314;81;20944;-82
2022/02/13 04:54:25;;;;;;;40.38;19.23;;;;;;;-1.81;77.68;101875.34;1761273;81;21027;-82
2022/02/13 04:56:52;;;;;;;33.58;19.42;;;;;;;-1.82;77.67;101873.16;1761600;81;21055;-83
2022/02/13 04:59:19;;;;;;;43.55;19.25;;;;;;;-1.83;77.62;101868.75;1761669;81;21088;-83
2022/02/13 05:01:46;;;;;;;40.38;20.65;;;;;;;-1.84;77.63;101868.23;1761720;81;21735;-85
2022/02/13 05:04:12;;;;;;;46.08;23.00;;;;;;;-1.85;77.65;101871.97;1761577;81;21497;-84
2022/02/13 05:06:39;;;;;;;44.38;21.75;;;;;;;-1.85;77.65;101874.16;1761717;81;20988;-85
2022/02/13 05:09:08;;;;;;;45.90;22.00;;;;;;;-1.86;77.65;101867.20;1761542;81;21176;-84
2022/02/13 05:11:34;;;;;;;42.27;22.40;;;;;;;-1.87;77.64;101869.23;1761568;81;21439;-84
2022/02/13 05:14:02;;;;;;;46.10;22.25;;;;;;;-1.89;77.60;101864.70;1761698;81;22568;-84
2022/02/13 05:16:29;;;;;;;42.08;22.50;;;;;;;-1.90;77.65;101863.78;1761565;81;21536;-84
2022/02/13 05:18:56;;;;;;;41.70;20.23;;;;;;;-1.92;77.61;101854.09;1761745;81;20971;-85
2022/02/13 05:21:22;;;;;;;42.50;22.22;;;;;;;-1.92;77.63;101851.52;1761716;80;21142;-84
2022/02/13 05:23:49;;;;;;;46.33;22.17;;;;;;;-1.93;77.69;101850.61;1761818;81;21000;-85
2022/02/13 05:26:16;;;;;;;41.73;22.60;;;;;;;-1.93;77.67;101846.74;1761724;81;22568;-85
2022/02/13 05:28:43;;;;;;;46.33;22.22;;;;;;;-1.97;77.65;101845.94;1761670;81;21003;-82
2022/02/13 05:31:10;;;;;;;38.02;22.05;;;;;;;-1.99;77.64;101840.99;1761501;81;20972;-82
2022/02/13 05:33:37;;;;;;;40.70;21.87;;;;;;;-2.01;77.65;101830.55;1761568;81;20979;-82
2022/02/13 05:36:04;;;;;;;37.23;20.72;;;;;;;-2.02;77.68;101833.88;1761445;81;21004;-83
2022/02/13 05:38:30;;;;;;;44.80;21.37;;;;;;;-2.02;77.68;101826.14;1761591;81;21741;-84
2022/02/13 05:40:57;;;;;;;38.20;20.80;;;;;;;-2.05;77.71;101824.56;1761591;81;21004;-85
2022/02/13 05:43:24;;;;;;;43.98;22.10;;;;;;;-2.08;77.67;101818.20;1761677;80;21418;-84
2022/02/13 05:45:51;;;;;;;42.33;21.02;;;;;;;-2.09;77.74;101813.83;1761716;81;21039;-84
2022/02/13 05:48:18;;;;;;;40.25;21.15;;;;;;;-2.12;77.73;101817.41;1761669;81;21007;-84
2022/02/13 05:50:44;;;;;;;43.17;22.45;;;;;;;-2.13;77.77;101820.37;1761549;81;21735;-84
2022/02/13 05:53:11;;;;;;;41.75;22.77;;;;;;;-2.15;77.78;101825.38;1767527;80;20992;-84
2022/02/13 05:55:38;;;;;;;39.50;21.55;;;;;;;-2.16;77.79;101829.11;1769338;80;21007;-84
2022/02/13 05:58:05;;;;;;;42.78;22.10;;;;;;;-2.23;77.88;101814.75;1769418;80;20975;-84
2022/02/13 06:00:32;;;;;;;42.95;22.55;;;;;;;-2.17;77.85;101827.31;1769486;81;20987;-85
2022/02/13 06:02:59;;;;;;;37.13;21.12;;;;;;;-2.17;77.87;101826.02;1769462;80;22544;-83
2022/02/13 06:05:25;;;;;;;41.58;21.70;;;;;;;-2.19;77.92;101827.16;1769539;81;21457;-84
2022/02/13 06:07:52;;;;;;;39.85;21.82;;;;;;;-2.16;77.98;101826.52;1769494;80;20991;-84
2022/02/13 06:10:19;;;;;;;45.73;21.68;;;;;;;-2.16;77.98;101820.08;1769393;80;20991;-84
2022/02/13 06:12:45;;;;;;;48.50;23.73;;;;;;;-2.17;77.95;101824.34;1769487;80;21015;-80
2022/02/13 06:15:12;;;;;;;51.18;24.23;;;;;;;-2.18;77.96;101821.25;1749647;81;22532;-80
2022/02/13 06:17:39;;;;;;;43.30;22.87;;;;;;;-2.18;78.01;101824.19;1768921;80;21015;-79
2022/02/13 06:20:07;;;;;;;46.33;23.45;;;;;;;-2.16;78.06;101820.08;1759146;80;20948;-79
2022/02/13 06:22:34;;;;;;;50.80;25.00;;;;;;;-2.13;78.10;101813.92;1755741;81;21023;-79
2022/02/13 06:25:00;;;;;;;46.80;23.70;;;;;;;-2.11;78.01;101811.49;1758407;80;21461;-80
2022/02/13 06:27:27;;;;;;;43.98;22.40;;;;;;;-2.11;78.02;101793.05;1757756;80;21783;-80
2022/02/13 06:29:54;;;;;;;47.73;23.18;;;;;;;-2.07;78.04;101791.66;1757989;80;21587;-80
2022/02/13 06:32:20;;;;;;;40.40;22.52;;;;;;;-2.05;78.07;101793.99;1691548;83;20991;-79
2022/02/13 06:34:47;;;;;;;45.55;23.38;;;;;;;-2.03;78.07;101792.06;1732604;81;20978;-79
2022/02/13 06:37:14;;;;;;;47.95;23.80;;;;;;;-2.01;78.08;101779.31;1684034;84;21470;-79
2022/02/13 06:39:40;;;;;;;49.98;23.57;;;;;;;-1.99;78.02;101788.09;1701269;84;21765;-80
2022/02/13 06:42:07;;;;;;;45.43;23.52;;;;;;;-1.98;78.05;101786.95;1703319;82;21486;-79
2022/02/13 06:44:34;;;;;;;40.38;22.60;;;;;;;-1.94;78.00;101786.86;1694004;84;20992;-79
2022/02/13 06:47:00;;;;;;;49.05;24.10;;;;;;;-1.90;78.06;101784.17;1687005;84;21007;-79
2022/02/13 06:49:27;;;;;;;47.10;23.52;;;;;;;-1.86;78.10;101773.36;1697185;83;21126;-79
2022/02/13 06:51:54;;;;;;;45.35;24.57;;;;;;;-1.79;78.09;101780.90;1702750;83;21690;-79
2022/02/13 06:54:21;;;;;;;46.88;24.43;;;;;;;-1.74;78.08;101780.94;1680503;84;21531;-79
2022/02/13 06:56:49;;;;;;;44.55;24.23;;;;;;;-1.67;78.12;101771.70;1678201;84;20993;-79
2022/02/13 06:59:18;;;;;;;47.33;24.32;;;;;;;-1.60;78.08;101766.29;1677565;84;21027;-79
2022/02/13 07:01:44;;;;;;;46.05;23.55;;;;;;;-1.51;78.08;101760.16;1678014;84;21447;-79
2022/02/13 07:04:11;;;;;;;44.50;23.80;;;;;;;-1.44;78.02;101753.48;1666273;85;21314;-79
2022/02/13 07:06:38;;;;;;;44.75;24.32;;;;;;;-1.39;77.96;101744.09;1677919;84;21016;-79
2022/02/13 07:09:06;;;;;;;42.30;23.92;;;;;;;-1.31;77.93;101739.99;1677969;85;21459;-78
2022/02/13 07:11:33;;;;;;;46.95;25.45;;;;;;;-1.25;77.83;101738.84;1700804;84;20974;-79
2022/02/13 07:14:00;;;;;;;53.63;25.75;;;;;;;-1.17;77.88;101741.70;1697713;84;21032;-79
2022/02/13 07:16:29;;;;;;;47.62;25.45;;;;;;;-1.06;77.84;101734.00;1678066;84;22195;-79
2022/02/13 07:18:58;;;;;;;42.83;25.12;;;;;;;-0.97;77.79;101732.22;1701143;83;20987;-79
2022/02/13 07:21:25;;;;;;;50.45;26.27;;;;;;;-0.88;77.74;101721.75;1700818;82;20975;-82
2022/02/13 07:23:52;;;;;;;45.75;25.30;;;;;;;-0.76;77.76;101716.35;1701302;83;21068;-81
2022/02/13 07:26:19;;;;;;;46.15;24.25;;;;;;;-0.64;77.73;101712.25;1701427;84;21443;-82
2022/02/13 07:29:00;;;;;;;42.73;24.18;;;;;;;-0.51;77.63;101711.58;1701579;84;22573;-83
2022/02/13 07:31:29;;;;;;;42.35;24.25;;;;;;;-0.38;77.58;101711.34;1701520;84;20967;-82
2022/02/13 07:33:56;;;;;;;44.03;25.25;;;;;;;-0.27;77.44;101707.57;1688959;84;20995;-83
2022/02/13 07:36:23;;;;;;;41.20;23.07;;;;;;;-0.12;77.43;101699.29;1649363;86;21502;-82
2022/02/13 07:38:50;;;;;;;45.17;24.92;;;;;;;0.02;77.28;101690.06;1668836;86;21027;-83
2022/02/13 07:41:16;;;;;;;48.30;25.52;;;;;;;0.12;77.07;101687.06;1668654;86;21704;-83
2022/02/13 07:43:43;;;;;;;43.52;24.80;;;;;;;0.22;76.99;101694.30;1668434;86;20988;-81
2022/02/13 07:46:10;;;;;;;39.50;24.12;;;;;;;0.30;76.86;101694.52;1668690;86;21033;-82
2022/02/13 07:48:37;;;;;;;40.60;23.92;;;;;;;0.39;76.74;101695.27;1675374;85;20992;-83
2022/02/13 07:51:04;;;;;;;45.12;25.27;;;;;;;0.45;76.55;101704.85;1691128;84;20959;-82
2022/02/13 07:53:31;;;;;;;48.02;25.25;;;;;;;0.50;76.37;101694.84;1702795;84;21671;-83
2022/02/13 07:55:58;;;;;;;42.15;23.73;;;;;;;0.54;76.25;101683.94;1678482;84;21436;-82
2022/02/13 07:58:30;;;;;;;43.83;24.80;;;;;;;0.58;76.12;101675.62;1703971;84;20997;-83
2022/02/13 08:00:53;;;;;;;42.25;24.92;;;;;;;0.62;76.14;101668.64;1703534;84;20995;-84
2022/02/13 08:03:20;;;;;;;43.55;25.23;;;;;;;0.68;76.04;101661.75;1683651;84;21033;-82
2022/02/13 08:05:46;;;;;;;45.78;25.08;;;;;;;0.72;75.96;101658.20;1703774;84;21736;-83
2022/02/13 08:08:13;;;;;;;43.58;24.27;;;;;;;0.80;75.88;101656.22;1703561;83;20986;-83
2022/02/13 08:10:40;;;;;;;42.98;23.98;;;;;;;0.86;75.79;101657.98;1703790;84;20982;-82
2022/02/13 08:13:07;;;;;;;43.08;24.57;;;;;;;0.93;75.73;101656.39;1703766;84;20963;-82
2022/02/13 08:15:33;;;;;;;41.90;24.95;;;;;;;1.01;75.70;101650.50;1703768;84;20974;-83
2022/02/13 08:18:12;;;;;;;48.42;26.62;;;;;;;1.10;75.62;101654.21;1704058;84;22515;-83
2022/02/13 08:20:39;;;;;;;43.17;24.85;;;;;;;1.17;75.47;101664.28;1704060;84;21129;-87
2022/02/13 08:23:07;;;;;;;46.33;26.35;;;;;;;1.25;75.40;101647.61;1704443;84;21002;-87
2022/02/13 08:25:34;;;;;;;47.00;25.02;;;;;;;1.30;75.22;101638.90;1704165;84;21142;-83
2022/02/13 08:28:01;;;;;;;47.48;25.30;;;;;;;1.34;75.14;101638.34;1704275;84;21014;-90
2022/02/13 08:30:28;;;;;;;44.75;24.07;;;;;;;1.38;75.01;101637.78;1704121;84;22487;-83
2022/02/13 08:32:58;;;;;;;49.40;25.95;;;;;;;1.40;74.91;101625.83;1703711;84;21043;-83
2022/02/13 08:35:24;;;;;;;41.18;23.65;;;;;;;1.44;74.81;101632.16;1703778;84;21029;-84
2022/02/13 08:37:50;;;;;;;42.13;24.18;;;;;;;1.43;74.67;101635.16;1703959;83;21014;-85
2022/02/13 08:40:17;;;;;;;39.58;24.20;;;;;;;1.43;74.60;101635.55;1704202;84;21451;-85
2022/02/13 08:42:43;;;;;;;40.73;24.72;;;;;;;1.41;74.48;101632.84;1704087;84;21710;-86
2022/02/13 08:45:10;;;;;;;44.05;23.85;;;;;;;1.39;74.42;101625.34;1704196;84;20931;-87
2022/02/13 08:47:37;;;;;;;42.93;23.35;;;;;;;1.40;74.43;101633.61;1709212;83;21010;-84
2022/02/13 08:50:04;;;;;;;42.75;25.48;;;;;;;1.40;74.28;101636.61;1711558;83;21007;-84
2022/02/13 08:52:31;;;;;;;43.80;24.37;;;;;;;1.40;74.23;101641.80;1713099;82;21557;-84
2022/02/13 08:54:58;;;;;;;54.60;26.93;;;;;;;1.42;74.24;101627.25;1708414;83;21818;-84
2022/02/13 08:57:24;;;;;;;45.55;25.68;;;;;;;1.45;74.21;101628.39;1746438;81;21000;-85
2022/02/13 08:59:51;;;;;;;48.35;27.00;;;;;;;1.48;74.17;101623.44;1769802;80;21836;-85
2022/02/13 09:02:19;;;;;;;41.58;24.75;;;;;;;1.55;74.23;101623.49;1763784;81;21516;-86
2022/02/13 09:04:46;;;;;;;40.33;23.83;;;;;;;1.60;74.16;101620.86;1712378;83;20995;-84
2022/02/13 09:07:13;;;;;;;42.15;23.50;;;;;;;1.69;74.15;101621.91;1741820;82;22509;-83
2022/02/13 09:09:43;;;;;;;42.40;22.98;;;;;;;1.77;74.08;101619.52;1701542;83;20988;-84
2022/02/13 09:12:08;;;;;;;39.83;23.85;;;;;;;1.85;74.06;101613.59;1740193;82;20982;-84
2022/02/13 09:14:36;;;;;;;39.33;23.32;;;;;;;1.93;73.92;101607.26;1744434;82;21048;-84
2022/02/13 09:17:04;;;;;;;38.25;21.95;;;;;;;2.02;73.87;101606.64;1714138;83;21021;-84
2022/02/13 09:19:30;;;;;;;42.03;25.65;;;;;;;2.12;73.71;101604.30;1740503;82;21734;-83
2022/02/13 09:21:57;;;;;;;40.60;23.98;;;;;;;2.21;73.57;101600.19;1745164;82;21468;-84
2022/02/13 09:24:23;;;;;;;42.98;23.00;;;;;;;2.28;73.48;101601.14;1698669;83;21043;-83
2022/02/13 09:26:50;;;;;;;38.40;22.00;;;;;;;2.35;73.29;101589.09;1740524;82;20963;-84
2022/02/13 09:29:17;;;;;;;44.53;23.55;;;;;;;2.43;73.19;101589.64;1741733;82;20978;-84
2022/02/13 09:31:43;;;;;;;36.85;22.42;;;;;;;2.51;73.03;101590.67;1745605;82;21733;-84
2022/02/13 09:34:12;;;;;;;36.48;22.20;;;;;;;2.57;72.85;101590.20;1692111;83;20976;-84
2022/02/13 09:36:40;;;;;;;38.00;22.60;;;;;;;2.67;72.73;101594.38;1755914;81;20931;-85
2022/02/13 09:39:06;;;;;;;36.58;22.55;;;;;;;2.74;72.63;101586.22;1758866;81;20977;-84
2022/02/13 09:41:33;;;;;;;40.08;24.00;;;;;;;2.83;72.50;101584.23;1759319;81;21006;-84
2022/02/13 09:44:00;;;;;;;34.20;20.80;;;;;;;2.92;72.39;101578.37;1759312;80;21776;-83
2022/02/13 09:46:26;;;;;;;39.25;22.50;;;;;;;3.00;72.18;101572.80;1759297;81;21467;-83
2022/02/13 09:48:53;;;;;;;35.50;22.60;;;;;;;3.08;72.14;101573.84;1759177;81;21424;-84
2022/02/13 09:51:20;;;;;;;32.53;19.35;;;;;;;3.17;71.97;101572.23;1721896;81;20943;-85
2022/02/13 09:53:47;;;;;;;32.65;20.30;;;;;;;3.26;71.81;101568.96;1749662;80;21013;-83
2022/02/13 09:56:14;;;;;;;39.90;23.10;;;;;;;3.34;71.54;101560.78;1693452;83;22558;-83
2022/02/13 09:58:40;;;;;;;43.30;25.15;;;;;;;3.40;71.40;101563.81;1672881;83;21025;-83
2022/02/13 10:01:09;;;;;;;36.15;20.70;;;;;;;3.50;71.42;101559.30;1689955;84;21510;-83
2022/02/13 10:03:40;;;;;;;30.80;18.48;;;;;;;3.62;71.15;101545.29;1709221;84;20997;-83
2022/02/13 10:06:17;;;;;;;31.33;19.35;;;;;;;3.69;70.87;101552.70;1702316;84;21068;-83
2022/02/13 10:08:55;;;;;;;27.10;17.20;;;;;;;3.76;70.77;101555.33;1701641;83;22746;-83
2022/02/13 10:11:33;;;;;;;28.75;18.67;;;;;;;3.84;70.62;101560.21;1701587;84;21080;-83
2022/02/13 10:14:12;;;;;;;28.47;19.25;;;;;;;3.90;70.52;101555.80;1699596;82;21581;-83
2022/02/13 10:16:41;;;;;;;30.37;17.92;;;;;;;3.94;70.15;101542.20;1701840;84;21033;-83
2022/02/13 10:19:15;;;;;;;31.85;19.65;;;;;;;4.02;70.14;101533.58;1701645;83;21038;-84
2022/02/13 10:21:50;;;;;;;30.35;19.27;;;;;;;4.11;70.15;101528.95;1701547;84;21732;-84
2022/02/13 10:24:30;;;;;;;29.40;18.52;;;;;;;4.20;69.97;101518.19;1701754;82;21484;-84
2022/02/13 10:27:08;;;;;;;31.07;17.00;;;;;;;4.25;69.75;101509.85;1699338;83;20969;-84
2022/02/13 10:29:38;;;;;;;29.45;17.48;;;;;;;4.30;69.64;101508.86;1706414;84;21605;-82
2022/02/13 10:32:18;;;;;;;33.83;18.55;;;;;;;4.31;69.44;101506.73;1709639;83;21042;-81
2022/02/13 10:35:09;;;;;;;27.58;17.45;;;;;;;4.38;69.43;101510.22;1704159;83;21752;-86
2022/02/13 10:37:56;;;;;;;26.52;16.80;;;;;;;4.42;69.22;101505.69;1714120;82;21450;-85
2022/02/13 10:40:25;;;;;;;27.55;17.07;;;;;;;4.47;69.14;101508.59;1714372;82;21505;-84
2022/02/13 10:43:09;;;;;;;26.50;16.67;;;;;;;4.54;69.01;101504.64;1714366;82;21024;-84
2022/02/13 10:45:39;;;;;;;25.23;15.68;;;;;;;4.50;68.52;101504.85;1708285;83;20971;-84
2022/02/13 10:48:08;;;;;;;28.10;16.80;;;;;;;4.46;68.40;101505.48;1691990;83;21758;-84
2022/02/13 10:50:39;;;;;;;27.45;18.20;;;;;;;4.47;68.56;101497.76;1692033;83;21470;-85
2022/02/13 10:53:08;;;;;;;31.90;19.10;;;;;;;4.50;68.49;101492.23;1696379;82;21170;-85
2022/02/13 10:55:37;;;;;;;31.85;20.77;;;;;;;4.47;68.17;101491.66;1722193;82;21035;-85
2022/02/13 10:58:04;;;;;;;28.77;18.07;;;;;;;4.50;68.27;101478.78;1722823;82;21080;-84
2022/02/13 11:00:31;;;;;;;27.20;15.32;;;;;;;4.52;68.16;101472.37;1722606;83;21740;-84
2022/02/13 11:03:08;;;;;;;28.00;18.77;;;;;;;4.54;68.07;101462.92;1722626;83;21015;-84
2022/02/13 11:05:32;;;;;;;30.43;17.17;;;;;;;4.56;67.84;101458.70;1719811;83;21561;-84
2022/02/13 11:08:11;;;;;;;22.65;15.48;;;;;;;4.58;67.76;101460.99;1707163;83;21158;-85
2022/02/13 11:10:41;;;;;;;27.85;16.10;;;;;;;4.60;67.64;101468.53;1707158;84;21478;-85
2022/02/13 11:13:10;;;;;;;29.60;15.83;;;;;;;4.63;67.47;101470.00;1707009;82;21900;-84